sensor_id;sensor_type;location;lat;lon;timestamp;P1;durP1;ratioP1;P2;durP2;ratioP2
29916;SDS011;16786;49.466;11.068;2024-03-22T00:00:55;30.17;;;17.13;;
29916;SDS011;16786;49.466;11.068;2024-03-22T00:03:21;28.27;;;17.30;;
29916;SDS011;16786;49.466;11.068;2024-03-22T00:05:48;28.13;;;18.48;;
29916;SDS011;16786;49.466;11.068;2024-03-22T00:08:14;27.30;;;17.70;;
29916;SDS011;16786;49.466;11.068;2024-03-22T00:10:40;27.75;;;17.92;;
29916;SDS011;16786;49.466;11.068;2024-03-22T00:13:06;28.63;;;18.23;;
29916;SDS011;16786;49.466;11.068;2024-03-22T00:15:32;32.45;;;18.10;;
29916;SDS011;16786;49.466;11.068;2024-03-22T00:17:58;31.00;;;17.65;;
29916;SDS011;16786;49.466;11.068;2024-03-22T00:20:24;31.67;;;19.25;;
29916;SDS011;16786;49.466;11.068;2024-03-22T00:22:50;27.55;;;17.88;;
29916;SDS011;16786;49.466;11.068;2024-03-22T00:25:15;31.20;;;19.15;;
29916;SDS011;16786;49.466;11.068;2024-03-22T00:27:41;31.65;;;19.35;;
29916;SDS011;16786;49.466;11.068;2024-03-22T00:30:08;29.25;;;18.15;;
29916;SDS011;16786;49.466;11.068;2024-03-22T00:32:34;29.10;;;19.15;;
29916;SDS011;16786;49.466;11.068;2024-03-22T00:35:00;30.88;;;18.25;;
29916;SDS011;16786;49.466;11.068;2024-03-22T00:37:26;30.90;;;19.35;;
29916;SDS011;16786;49.466;11.068;2024-03-22T00:39:51;30.48;;;17.92;;
29916;SDS011;16786;49.466;11.068;2024-03-22T00:42:17;28.17;;;17.90;;
29916;SDS011;16786;49.466;11.068;2024-03-22T00:44:44;26.92;;;16.38;;
29916;SDS011;16786;49.466;11.068;2024-03-22T00:47:09;27.55;;;17.17;;
29916;SDS011;16786;49.466;11.068;2024-03-22T00:49:35;31.10;;;18.58;;
29916;SDS011;16786;49.466;11.068;2024-03-22T00:52:01;28.95;;;18.52;;
29916;SDS011;16786;49.466;11.068;2024-03-22T00:54:28;27.83;;;17.17;;
29916;SDS011;16786;49.466;11.068;2024-03-22T00:56:54;30.08;;;18.08;;
29916;SDS011;16786;49.466;11.068;2024-03-22T00:59:20;28.60;;;16.85;;
29916;SDS011;16786;49.466;11.068;2024-03-22T01:01:45;32.45;;;18.85;;
29916;SDS011;16786;49.466;11.068;2024-03-22T01:04:11;31.80;;;19.35;;
29916;SDS011;16786;49.466;11.068;2024-03-22T01:06:37;34.50;;;20.25;;
29916;SDS011;16786;49.466;11.068;2024-03-22T01:09:05;31.48;;;17.83;;
29916;SDS011;16786;49.466;11.068;2024-03-22T01:11:31;31.13;;;17.75;;
29916;SDS011;16786;49.466;11.068;2024-03-22T01:13:57;27.45;;;17.60;;
29916;SDS011;16786;49.466;11.068;2024-03-22T01:16:23;30.17;;;18.23;;
29916;SDS011;16786;49.466;11.068;2024-03-22T01:18:49;29.98;;;17.90;;
29916;SDS011;16786;49.466;11.068;2024-03-22T01:21:15;30.83;;;17.40;;
29916;SDS011;16786;49.466;11.068;2024-03-22T01:23:41;30.95;;;19.33;;
29916;SDS011;16786;49.466;11.068;2024-03-22T01:26:07;30.67;;;18.40;;
29916;SDS011;16786;49.466;11.068;2024-03-22T01:28:33;25.80;;;17.08;;
29916;SDS011;16786;49.466;11.068;2024-03-22T01:30:59;27.95;;;17.30;;
29916;SDS011;16786;49.466;11.068;2024-03-22T01:33:25;28.90;;;18.42;;
29916;SDS011;16786;49.466;11.068;2024-03-22T01:35:51;29.83;;;17.40;;
29916;SDS011;16786;49.466;11.068;2024-03-22T01:38:17;30.45;;;18.02;;
29916;SDS011;16786;49.466;11.068;2024-03-22T01:40:44;27.85;;;17.73;;
29916;SDS011;16786;49.466;11.068;2024-03-22T01:43:09;29.63;;;18.25;;
29916;SDS011;16786;49.466;11.068;2024-03-22T01:45:35;31.30;;;17.95;;
29916;SDS011;16786;49.466;11.068;2024-03-22T01:48:02;34.00;;;19.08;;
29916;SDS011;16786;49.466;11.068;2024-03-22T01:50:29;31.30;;;17.58;;
29916;SDS011;16786;49.466;11.068;2024-03-22T01:52:56;30.85;;;16.75;;
29916;SDS011;16786;49.466;11.068;2024-03-22T01:55:22;29.13;;;18.42;;
29916;SDS011;16786;49.466;11.068;2024-03-22T01:57:49;32.75;;;17.90;;
29916;SDS011;16786;49.466;11.068;2024-03-22T02:00:19;31.40;;;18.73;;
29916;SDS011;16786;49.466;11.068;2024-03-22T02:02:45;27.70;;;16.75;;
29916;SDS011;16786;49.466;11.068;2024-03-22T02:05:13;27.50;;;16.00;;
29916;SDS011;16786;49.466;11.068;2024-03-22T02:07:41;31.55;;;18.48;;
29916;SDS011;16786;49.466;11.068;2024-03-22T02:10:08;31.17;;;17.83;;
29916;SDS011;16786;49.466;11.068;2024-03-22T02:12:37;31.02;;;17.83;;
29916;SDS011;16786;49.466;11.068;2024-03-22T02:15:06;31.25;;;18.38;;
29916;SDS011;16786;49.466;11.068;2024-03-22T02:17:34;29.67;;;17.55;;
29916;SDS011;16786;49.466;11.068;2024-03-22T02:20:01;27.88;;;17.25;;
29916;SDS011;16786;49.466;11.068;2024-03-22T02:22:27;32.35;;;18.52;;
29916;SDS011;16786;49.466;11.068;2024-03-22T02:24:53;28.80;;;16.75;;
29916;SDS011;16786;49.466;11.068;2024-03-22T02:27:19;29.92;;;17.52;;
29916;SDS011;16786;49.466;11.068;2024-03-22T02:29:45;30.42;;;16.58;;
29916;SDS011;16786;49.466;11.068;2024-03-22T02:32:11;24.80;;;16.35;;
29916;SDS011;16786;49.466;11.068;2024-03-22T02:34:37;23.27;;;15.45;;
29916;SDS011;16786;49.466;11.068;2024-03-22T02:37:03;26.30;;;15.88;;
29916;SDS011;16786;49.466;11.068;2024-03-22T02:39:30;28.50;;;16.55;;
29916;SDS011;16786;49.466;11.068;2024-03-22T02:41:56;24.90;;;14.90;;
29916;SDS011;16786;49.466;11.068;2024-03-22T02:44:22;26.42;;;16.23;;
29916;SDS011;16786;49.466;11.068;2024-03-22T02:46:48;26.30;;;15.63;;
29916;SDS011;16786;49.466;11.068;2024-03-22T02:49:14;23.27;;;15.43;;
29916;SDS011;16786;49.466;11.068;2024-03-22T02:51:40;26.98;;;15.27;;
29916;SDS011;16786;49.466;11.068;2024-03-22T02:54:05;28.75;;;16.15;;
29916;SDS011;16786;49.466;11.068;2024-03-22T02:56:31;31.48;;;17.30;;
29916;SDS011;16786;49.466;11.068;2024-03-22T02:58:57;28.02;;;15.55;;
29916;SDS011;16786;49.466;11.068;2024-03-22T03:01:23;25.98;;;15.07;;
29916;SDS011;16786;49.466;11.068;2024-03-22T03:03:49;26.48;;;14.82;;
29916;SDS011;16786;49.466;11.068;2024-03-22T03:06:15;26.42;;;15.85;;
29916;SDS011;16786;49.466;11.068;2024-03-22T03:08:43;27.55;;;16.20;;
29916;SDS011;16786;49.466;11.068;2024-03-22T03:11:09;25.77;;;16.38;;
29916;SDS011;16786;49.466;11.068;2024-03-22T03:13:35;28.77;;;16.80;;
29916;SDS011;16786;49.466;11.068;2024-03-22T03:16:01;27.17;;;16.65;;
29916;SDS011;16786;49.466;11.068;2024-03-22T03:18:27;26.30;;;15.23;;
29916;SDS011;16786;49.466;11.068;2024-03-22T03:20:53;27.85;;;17.23;;
29916;SDS011;16786;49.466;11.068;2024-03-22T03:23:19;30.20;;;16.52;;
29916;SDS011;16786;49.466;11.068;2024-03-22T03:25:45;29.00;;;16.80;;
29916;SDS011;16786;49.466;11.068;2024-03-22T03:28:11;25.80;;;16.23;;
29916;SDS011;16786;49.466;11.068;2024-03-22T03:30:38;27.80;;;16.33;;
29916;SDS011;16786;49.466;11.068;2024-03-22T03:33:04;28.48;;;16.52;;
29916;SDS011;16786;49.466;11.068;2024-03-22T03:35:30;25.52;;;15.98;;
29916;SDS011;16786;49.466;11.068;2024-03-22T03:37:56;27.02;;;16.40;;
29916;SDS011;16786;49.466;11.068;2024-03-22T03:40:22;28.52;;;16.50;;
29916;SDS011;16786;49.466;11.068;2024-03-22T03:42:50;30.48;;;16.80;;
29916;SDS011;16786;49.466;11.068;2024-03-22T03:45:16;30.80;;;17.88;;
29916;SDS011;16786;49.466;11.068;2024-03-22T03:47:42;31.75;;;18.35;;
29916;SDS011;16786;49.466;11.068;2024-03-22T03:50:08;28.33;;;17.73;;
29916;SDS011;16786;49.466;11.068;2024-03-22T03:52:35;26.67;;;16.38;;
29916;SDS011;16786;49.466;11.068;2024-03-22T03:55:01;30.95;;;16.95;;
29916;SDS011;16786;49.466;11.068;2024-03-22T03:57:27;33.78;;;19.27;;
29916;SDS011;16786;49.466;11.068;2024-03-22T03:59:52;32.10;;;18.77;;
29916;SDS011;16786;49.466;11.068;2024-03-22T04:02:18;31.13;;;18.08;;
29916;SDS011;16786;49.466;11.068;2024-03-22T04:04:44;32.63;;;18.17;;
29916;SDS011;16786;49.466;11.068;2024-03-22T04:07:10;33.03;;;18.92;;
29916;SDS011;16786;49.466;11.068;2024-03-22T04:09:36;32.25;;;18.67;;
29916;SDS011;16786;49.466;11.068;2024-03-22T04:12:02;34.70;;;19.65;;
29916;SDS011;16786;49.466;11.068;2024-03-22T04:14:29;30.60;;;17.35;;
29916;SDS011;16786;49.466;11.068;2024-03-22T04:16:55;30.98;;;18.45;;
29916;SDS011;16786;49.466;11.068;2024-03-22T04:19:21;33.13;;;19.77;;
29916;SDS011;16786;49.466;11.068;2024-03-22T04:21:48;28.88;;;18.20;;
29916;SDS011;16786;49.466;11.068;2024-03-22T04:24:15;33.00;;;19.35;;
29916;SDS011;16786;49.466;11.068;2024-03-22T04:26:41;34.00;;;19.25;;
29916;SDS011;16786;49.466;11.068;2024-03-22T04:29:07;35.75;;;20.70;;
29916;SDS011;16786;49.466;11.068;2024-03-22T04:31:33;34.97;;;19.25;;
29916;SDS011;16786;49.466;11.068;2024-03-22T04:33:59;34.53;;;19.35;;
29916;SDS011;16786;49.466;11.068;2024-03-22T04:36:25;36.20;;;19.50;;
29916;SDS011;16786;49.466;11.068;2024-03-22T04:38:51;33.95;;;19.42;;
29916;SDS011;16786;49.466;11.068;2024-03-22T04:41:17;33.90;;;17.90;;
29916;SDS011;16786;49.466;11.068;2024-03-22T04:43:43;37.42;;;19.90;;
29916;SDS011;16786;49.466;11.068;2024-03-22T04:46:09;35.90;;;20.38;;
29916;SDS011;16786;49.466;11.068;2024-03-22T04:48:35;34.35;;;18.67;;
29916;SDS011;16786;49.466;11.068;2024-03-22T04:51:01;33.55;;;18.38;;
29916;SDS011;16786;49.466;11.068;2024-03-22T04:53:27;35.28;;;19.35;;
29916;SDS011;16786;49.466;11.068;2024-03-22T04:55:53;30.80;;;18.52;;
29916;SDS011;16786;49.466;11.068;2024-03-22T04:58:20;31.92;;;19.00;;
29916;SDS011;16786;49.466;11.068;2024-03-22T05:00:47;30.13;;;18.05;;
29916;SDS011;16786;49.466;11.068;2024-03-22T05:03:14;34.05;;;17.98;;
29916;SDS011;16786;49.466;11.068;2024-03-22T05:05:41;34.95;;;20.77;;
29916;SDS011;16786;49.466;11.068;2024-03-22T05:08:08;39.08;;;21.15;;
29916;SDS011;16786;49.466;11.068;2024-03-22T05:10:35;41.47;;;23.52;;
29916;SDS011;16786;49.466;11.068;2024-03-22T05:13:01;41.50;;;22.23;;
29916;SDS011;16786;49.466;11.068;2024-03-22T05:15:28;38.72;;;21.25;;
29916;SDS011;16786;49.466;11.068;2024-03-22T05:17:56;35.88;;;20.30;;
29916;SDS011;16786;49.466;11.068;2024-03-22T05:20:23;36.55;;;19.83;;
29916;SDS011;16786;49.466;11.068;2024-03-22T05:22:49;39.00;;;21.67;;
29916;SDS011;16786;49.466;11.068;2024-03-22T05:25:15;43.65;;;21.73;;
29916;SDS011;16786;49.466;11.068;2024-03-22T05:27:41;40.83;;;21.60;;
29916;SDS011;16786;49.466;11.068;2024-03-22T05:30:11;40.35;;;21.83;;
29916;SDS011;16786;49.466;11.068;2024-03-22T05:32:38;40.15;;;23.73;;
29916;SDS011;16786;49.466;11.068;2024-03-22T05:35:05;35.55;;;19.95;;
29916;SDS011;16786;49.466;11.068;2024-03-22T05:37:32;36.17;;;19.10;;
29916;SDS011;16786;49.466;11.068;2024-03-22T05:40:00;31.17;;;18.85;;
29916;SDS011;16786;49.466;11.068;2024-03-22T05:42:28;31.08;;;17.40;;
29916;SDS011;16786;49.466;11.068;2024-03-22T05:44:54;30.75;;;18.50;;
29916;SDS011;16786;49.466;11.068;2024-03-22T05:47:21;31.25;;;19.08;;
29916;SDS011;16786;49.466;11.068;2024-03-22T05:49:47;28.23;;;18.48;;
29916;SDS011;16786;49.466;11.068;2024-03-22T05:52:13;33.78;;;20.00;;
29916;SDS011;16786;49.466;11.068;2024-03-22T05:54:39;34.45;;;19.20;;
29916;SDS011;16786;49.466;11.068;2024-03-22T05:57:05;30.98;;;17.95;;
29916;SDS011;16786;49.466;11.068;2024-03-22T05:59:32;26.75;;;17.88;;
29916;SDS011;16786;49.466;11.068;2024-03-22T06:01:59;29.40;;;17.80;;
29916;SDS011;16786;49.466;11.068;2024-03-22T06:04:26;26.40;;;16.35;;
29916;SDS011;16786;49.466;11.068;2024-03-22T06:06:52;26.42;;;15.60;;
29916;SDS011;16786;49.466;11.068;2024-03-22T06:09:18;28.77;;;16.70;;
29916;SDS011;16786;49.466;11.068;2024-03-22T06:11:59;28.33;;;17.38;;
29916;SDS011;16786;49.466;11.068;2024-03-22T06:14:28;29.80;;;18.52;;
29916;SDS011;16786;49.466;11.068;2024-03-22T06:16:54;29.15;;;18.13;;
29916;SDS011;16786;49.466;11.068;2024-03-22T06:19:20;29.98;;;17.05;;
29916;SDS011;16786;49.466;11.068;2024-03-22T06:21:46;29.17;;;17.38;;
29916;SDS011;16786;49.466;11.068;2024-03-22T06:24:12;29.77;;;17.60;;
29916;SDS011;16786;49.466;11.068;2024-03-22T06:26:38;25.23;;;16.38;;
29916;SDS011;16786;49.466;11.068;2024-03-22T06:29:04;25.67;;;16.75;;
29916;SDS011;16786;49.466;11.068;2024-03-22T06:31:31;27.83;;;15.63;;
29916;SDS011;16786;49.466;11.068;2024-03-22T06:33:57;28.92;;;17.15;;
29916;SDS011;16786;49.466;11.068;2024-03-22T06:36:31;29.60;;;16.63;;
29916;SDS011;16786;49.466;11.068;2024-03-22T06:38:58;24.38;;;14.60;;
29916;SDS011;16786;49.466;11.068;2024-03-22T06:41:24;26.42;;;16.05;;
29916;SDS011;16786;49.466;11.068;2024-03-22T06:43:51;26.60;;;15.85;;
29916;SDS011;16786;49.466;11.068;2024-03-22T06:46:17;25.30;;;16.48;;
29916;SDS011;16786;49.466;11.068;2024-03-22T06:48:43;24.52;;;15.25;;
29916;SDS011;16786;49.466;11.068;2024-03-22T06:51:10;32.20;;;18.48;;
29916;SDS011;16786;49.466;11.068;2024-03-22T06:53:36;25.42;;;15.35;;
29916;SDS011;16786;49.466;11.068;2024-03-22T06:56:02;25.48;;;16.05;;
29916;SDS011;16786;49.466;11.068;2024-03-22T06:58:29;25.15;;;15.95;;
29916;SDS011;16786;49.466;11.068;2024-03-22T07:00:55;25.55;;;15.50;;
29916;SDS011;16786;49.466;11.068;2024-03-22T07:03:21;24.27;;;14.35;;
29916;SDS011;16786;49.466;11.068;2024-03-22T07:05:47;25.08;;;15.57;;
29916;SDS011;16786;49.466;11.068;2024-03-22T07:08:13;25.63;;;14.68;;
29916;SDS011;16786;49.466;11.068;2024-03-22T07:10:39;23.45;;;14.75;;
29916;SDS011;16786;49.466;11.068;2024-03-22T07:13:05;22.27;;;14.48;;
29916;SDS011;16786;49.466;11.068;2024-03-22T07:15:31;24.15;;;15.02;;
29916;SDS011;16786;49.466;11.068;2024-03-22T07:17:58;22.23;;;14.70;;
29916;SDS011;16786;49.466;11.068;2024-03-22T07:20:24;24.73;;;15.00;;
29916;SDS011;16786;49.466;11.068;2024-03-22T07:22:51;24.13;;;15.00;;
29916;SDS011;16786;49.466;11.068;2024-03-22T07:25:17;22.90;;;14.70;;
29916;SDS011;16786;49.466;11.068;2024-03-22T07:27:43;22.48;;;14.77;;
29916;SDS011;16786;49.466;11.068;2024-03-22T07:30:09;21.83;;;14.10;;
29916;SDS011;16786;49.466;11.068;2024-03-22T07:32:35;19.63;;;13.10;;
29916;SDS011;16786;49.466;11.068;2024-03-22T07:35:03;23.92;;;13.93;;
29916;SDS011;16786;49.466;11.068;2024-03-22T07:37:29;19.90;;;13.23;;
29916;SDS011;16786;49.466;11.068;2024-03-22T07:39:55;21.38;;;13.90;;
29916;SDS011;16786;49.466;11.068;2024-03-22T07:42:21;18.60;;;13.05;;
29916;SDS011;16786;49.466;11.068;2024-03-22T07:44:47;22.80;;;14.95;;
29916;SDS011;16786;49.466;11.068;2024-03-22T07:47:13;28.58;;;16.35;;
29916;SDS011;16786;49.466;11.068;2024-03-22T07:49:39;24.60;;;15.77;;
29916;SDS011;16786;49.466;11.068;2024-03-22T07:52:05;22.27;;;14.70;;
29916;SDS011;16786;49.466;11.068;2024-03-22T07:54:31;23.33;;;15.32;;
29916;SDS011;16786;49.466;11.068;2024-03-22T07:56:57;22.63;;;15.20;;
29916;SDS011;16786;49.466;11.068;2024-03-22T07:59:23;22.75;;;15.43;;
29916;SDS011;16786;49.466;11.068;2024-03-22T08:01:49;22.52;;;14.82;;
29916;SDS011;16786;49.466;11.068;2024-03-22T08:04:15;23.17;;;15.43;;
29916;SDS011;16786;49.466;11.068;2024-03-22T08:06:41;22.30;;;15.75;;
29916;SDS011;16786;49.466;11.068;2024-03-22T08:09:07;24.30;;;15.90;;
29916;SDS011;16786;49.466;11.068;2024-03-22T08:11:33;28.42;;;16.40;;
29916;SDS011;16786;49.466;11.068;2024-03-22T08:13:59;26.58;;;16.73;;
29916;SDS011;16786;49.466;11.068;2024-03-22T08:16:29;24.05;;;16.20;;
29916;SDS011;16786;49.466;11.068;2024-03-22T08:18:55;25.35;;;15.90;;
29916;SDS011;16786;49.466;11.068;2024-03-22T08:21:22;24.63;;;16.15;;
29916;SDS011;16786;49.466;11.068;2024-03-22T08:23:49;24.90;;;15.95;;
29916;SDS011;16786;49.466;11.068;2024-03-22T08:26:16;26.77;;;16.23;;
29916;SDS011;16786;49.466;11.068;2024-03-22T08:28:43;25.83;;;16.77;;
29916;SDS011;16786;49.466;11.068;2024-03-22T08:31:13;20.77;;;15.00;;
29916;SDS011;16786;49.466;11.068;2024-03-22T08:33:39;22.15;;;15.43;;
29916;SDS011;16786;49.466;11.068;2024-03-22T08:36:05;23.45;;;15.77;;
29916;SDS011;16786;49.466;11.068;2024-03-22T08:38:31;26.20;;;17.08;;
29916;SDS011;16786;49.466;11.068;2024-03-22T08:40:58;25.92;;;16.65;;
29916;SDS011;16786;49.466;11.068;2024-03-22T08:43:24;23.05;;;15.63;;
29916;SDS011;16786;49.466;11.068;2024-03-22T08:45:53;22.13;;;15.77;;
29916;SDS011;16786;49.466;11.068;2024-03-22T08:48:19;29.20;;;16.35;;
29916;SDS011;16786;49.466;11.068;2024-03-22T08:50:45;24.05;;;16.52;;
29916;SDS011;16786;49.466;11.068;2024-03-22T08:53:11;33.17;;;18.52;;
29916;SDS011;16786;49.466;11.068;2024-03-22T08:55:37;28.85;;;17.90;;
29916;SDS011;16786;49.466;11.068;2024-03-22T08:58:03;24.13;;;15.85;;
29916;SDS011;16786;49.466;11.068;2024-03-22T09:00:30;24.40;;;14.75;;
29916;SDS011;16786;49.466;11.068;2024-03-22T09:02:55;25.27;;;15.48;;
29916;SDS011;16786;49.466;11.068;2024-03-22T09:05:21;21.80;;;15.02;;
29916;SDS011;16786;49.466;11.068;2024-03-22T09:07:47;24.95;;;16.35;;
29916;SDS011;16786;49.466;11.068;2024-03-22T09:10:14;24.27;;;15.25;;
29916;SDS011;16786;49.466;11.068;2024-03-22T09:12:40;20.95;;;14.95;;
29916;SDS011;16786;49.466;11.068;2024-03-22T09:15:06;26.58;;;16.05;;
29916;SDS011;16786;49.466;11.068;2024-03-22T09:17:33;23.63;;;14.45;;
29916;SDS011;16786;49.466;11.068;2024-03-22T09:19:59;24.38;;;16.40;;
29916;SDS011;16786;49.466;11.068;2024-03-22T09:22:25;21.75;;;15.05;;
29916;SDS011;16786;49.466;11.068;2024-03-22T09:24:51;22.67;;;15.32;;
29916;SDS011;16786;49.466;11.068;2024-03-22T09:27:17;25.80;;;16.08;;
29916;SDS011;16786;49.466;11.068;2024-03-22T09:29:43;24.10;;;16.08;;
29916;SDS011;16786;49.466;11.068;2024-03-22T09:32:09;21.80;;;15.00;;
29916;SDS011;16786;49.466;11.068;2024-03-22T09:34:35;20.77;;;15.63;;
29916;SDS011;16786;49.466;11.068;2024-03-22T09:37:01;20.17;;;15.90;;
29916;SDS011;16786;49.466;11.068;2024-03-22T09:39:27;21.85;;;14.98;;
29916;SDS011;16786;49.466;11.068;2024-03-22T09:41:53;24.63;;;16.75;;
29916;SDS011;16786;49.466;11.068;2024-03-22T09:44:23;25.00;;;15.50;;
29916;SDS011;16786;49.466;11.068;2024-03-22T09:46:54;20.60;;;14.93;;
29916;SDS011;16786;49.466;11.068;2024-03-22T09:49:21;22.98;;;15.30;;
29916;SDS011;16786;49.466;11.068;2024-03-22T09:51:48;22.67;;;16.45;;
29916;SDS011;16786;49.466;11.068;2024-03-22T09:54:17;24.52;;;15.52;;
29916;SDS011;16786;49.466;11.068;2024-03-22T09:56:43;19.88;;;15.13;;
29916;SDS011;16786;49.466;11.068;2024-03-22T09:59:12;22.00;;;15.52;;
29916;SDS011;16786;49.466;11.068;2024-03-22T10:01:38;18.58;;;14.65;;
29916;SDS011;16786;49.466;11.068;2024-03-22T10:04:06;20.33;;;14.25;;
29916;SDS011;16786;49.466;11.068;2024-03-22T10:06:35;20.30;;;14.85;;
29916;SDS011;16786;49.466;11.068;2024-03-22T10:09:01;20.30;;;14.75;;
29916;SDS011;16786;49.466;11.068;2024-03-22T10:11:27;19.80;;;14.07;;
29916;SDS011;16786;49.466;11.068;2024-03-22T10:13:53;20.92;;;14.80;;
29916;SDS011;16786;49.466;11.068;2024-03-22T10:16:21;19.08;;;15.43;;
29916;SDS011;16786;49.466;11.068;2024-03-22T10:18:47;22.45;;;15.30;;
29916;SDS011;16786;49.466;11.068;2024-03-22T10:21:16;19.23;;;14.90;;
29916;SDS011;16786;49.466;11.068;2024-03-22T10:23:43;22.08;;;14.27;;
29916;SDS011;16786;49.466;11.068;2024-03-22T10:26:12;18.77;;;14.73;;
29916;SDS011;16786;49.466;11.068;2024-03-22T10:28:44;19.95;;;15.25;;
29916;SDS011;16786;49.466;11.068;2024-03-22T10:31:11;22.13;;;16.60;;
29916;SDS011;16786;49.466;11.068;2024-03-22T10:33:38;20.15;;;14.73;;
29916;SDS011;16786;49.466;11.068;2024-03-22T10:36:06;19.15;;;14.43;;
29916;SDS011;16786;49.466;11.068;2024-03-22T10:38:34;15.98;;;12.50;;
29916;SDS011;16786;49.466;11.068;2024-03-22T10:41:03;15.85;;;12.65;;
29916;SDS011;16786;49.466;11.068;2024-03-22T10:43:30;18.85;;;13.90;;
29916;SDS011;16786;49.466;11.068;2024-03-22T10:46:00;16.30;;;12.40;;
29916;SDS011;16786;49.466;11.068;2024-03-22T10:48:29;14.82;;;12.43;;
29916;SDS011;16786;49.466;11.068;2024-03-22T10:51:00;13.13;;;11.45;;
29916;SDS011;16786;49.466;11.068;2024-03-22T10:53:28;14.38;;;12.57;;
29916;SDS011;16786;49.466;11.068;2024-03-22T10:55:58;14.10;;;12.13;;
29916;SDS011;16786;49.466;11.068;2024-03-22T10:58:26;14.82;;;12.43;;
29916;SDS011;16786;49.466;11.068;2024-03-22T11:00:53;16.02;;;12.85;;
29916;SDS011;16786;49.466;11.068;2024-03-22T11:03:20;14.27;;;11.65;;
29916;SDS011;16786;49.466;11.068;2024-03-22T11:05:49;13.75;;;10.45;;
29916;SDS011;16786;49.466;11.068;2024-03-22T11:08:23;12.50;;;10.75;;
29916;SDS011;16786;49.466;11.068;2024-03-22T11:10:53;13.35;;;10.82;;
29916;SDS011;16786;49.466;11.068;2024-03-22T11:13:20;12.65;;;10.38;;
29916;SDS011;16786;49.466;11.068;2024-03-22T11:15:47;10.35;;;9.00;;
29916;SDS011;16786;49.466;11.068;2024-03-22T11:18:13;11.13;;;9.90;;
29916;SDS011;16786;49.466;11.068;2024-03-22T11:20:41;10.45;;;9.23;;
29916;SDS011;16786;49.466;11.068;2024-03-22T11:23:08;12.02;;;10.18;;
29916;SDS011;16786;49.466;11.068;2024-03-22T11:25:34;11.75;;;10.15;;
29916;SDS011;16786;49.466;11.068;2024-03-22T11:28:01;10.80;;;9.68;;
29916;SDS011;16786;49.466;11.068;2024-03-22T11:30:30;11.10;;;9.73;;
29916;SDS011;16786;49.466;11.068;2024-03-22T11:33:02;13.05;;;9.68;;
29916;SDS011;16786;49.466;11.068;2024-03-22T11:35:28;12.00;;;9.05;;
29916;SDS011;16786;49.466;11.068;2024-03-22T11:37:54;10.63;;;8.65;;
29916;SDS011;16786;49.466;11.068;2024-03-22T11:40:21;9.68;;;8.68;;
29916;SDS011;16786;49.466;11.068;2024-03-22T11:42:49;11.55;;;9.40;;
29916;SDS011;16786;49.466;11.068;2024-03-22T11:45:17;10.88;;;9.43;;
29916;SDS011;16786;49.466;11.068;2024-03-22T11:47:45;10.73;;;9.57;;
29916;SDS011;16786;49.466;11.068;2024-03-22T11:50:12;11.15;;;9.52;;
29916;SDS011;16786;49.466;11.068;2024-03-22T11:52:41;11.23;;;9.68;;
29916;SDS011;16786;49.466;11.068;2024-03-22T11:55:08;10.80;;;8.95;;
29916;SDS011;16786;49.466;11.068;2024-03-22T11:57:36;10.82;;;9.07;;
29916;SDS011;16786;49.466;11.068;2024-03-22T12:00:03;10.15;;;8.63;;
29916;SDS011;16786;49.466;11.068;2024-03-22T12:02:40;10.23;;;9.05;;
29916;SDS011;16786;49.466;11.068;2024-03-22T12:05:07;10.38;;;8.35;;
29916;SDS011;16786;49.466;11.068;2024-03-22T12:07:34;9.18;;;8.27;;
29916;SDS011;16786;49.466;11.068;2024-03-22T12:10:00;11.90;;;8.77;;
29916;SDS011;16786;49.466;11.068;2024-03-22T12:12:27;10.02;;;9.02;;
29916;SDS011;16786;49.466;11.068;2024-03-22T12:14:53;10.43;;;9.02;;
29916;SDS011;16786;49.466;11.068;2024-03-22T12:17:19;11.00;;;9.02;;
29916;SDS011;16786;49.466;11.068;2024-03-22T12:19:45;11.07;;;9.88;;
29916;SDS011;16786;49.466;11.068;2024-03-22T12:22:11;10.25;;;8.98;;
29916;SDS011;16786;49.466;11.068;2024-03-22T12:24:37;11.15;;;9.77;;
29916;SDS011;16786;49.466;11.068;2024-03-22T12:27:03;11.95;;;10.10;;
29916;SDS011;16786;49.466;11.068;2024-03-22T12:29:31;11.73;;;10.50;;
29916;SDS011;16786;49.466;11.068;2024-03-22T12:31:58;11.90;;;10.38;;
29916;SDS011;16786;49.466;11.068;2024-03-22T12:34:27;12.15;;;10.90;;
29916;SDS011;16786;49.466;11.068;2024-03-22T12:36:55;11.27;;;9.93;;
29916;SDS011;16786;49.466;11.068;2024-03-22T12:39:21;12.68;;;10.52;;
29916;SDS011;16786;49.466;11.068;2024-03-22T12:41:47;11.38;;;10.18;;
29916;SDS011;16786;49.466;11.068;2024-03-22T12:44:14;11.35;;;10.10;;
29916;SDS011;16786;49.466;11.068;2024-03-22T12:46:40;11.38;;;9.90;;
29916;SDS011;16786;49.466;11.068;2024-03-22T12:49:08;9.80;;;8.80;;
29916;SDS011;16786;49.466;11.068;2024-03-22T12:51:35;11.18;;;9.27;;
29916;SDS011;16786;49.466;11.068;2024-03-22T12:54:02;11.50;;;10.30;;
29916;SDS011;16786;49.466;11.068;2024-03-22T12:56:29;10.75;;;9.65;;
29916;SDS011;16786;49.466;11.068;2024-03-22T12:58:58;9.95;;;8.15;;
29916;SDS011;16786;49.466;11.068;2024-03-22T13:01:24;8.10;;;7.32;;
29916;SDS011;16786;49.466;11.068;2024-03-22T13:03:50;8.52;;;7.72;;
29916;SDS011;16786;49.466;11.068;2024-03-22T13:06:17;9.20;;;8.10;;
29916;SDS011;16786;49.466;11.068;2024-03-22T13:08:43;10.30;;;8.50;;
29916;SDS011;16786;49.466;11.068;2024-03-22T13:11:09;8.70;;;7.90;;
29916;SDS011;16786;49.466;11.068;2024-03-22T13:13:35;11.60;;;8.20;;
29916;SDS011;16786;49.466;11.068;2024-03-22T13:16:01;10.23;;;9.18;;
29916;SDS011;16786;49.466;11.068;2024-03-22T13:18:28;9.55;;;8.38;;
29916;SDS011;16786;49.466;11.068;2024-03-22T13:20:54;9.70;;;8.30;;
29916;SDS011;16786;49.466;11.068;2024-03-22T13:23:21;10.57;;;9.23;;
29916;SDS011;16786;49.466;11.068;2024-03-22T13:25:47;10.57;;;8.60;;
29916;SDS011;16786;49.466;11.068;2024-03-22T13:28:13;9.50;;;8.55;;
29916;SDS011;16786;49.466;11.068;2024-03-22T13:30:39;10.15;;;9.15;;
29916;SDS011;16786;49.466;11.068;2024-03-22T13:33:05;10.43;;;9.27;;
29916;SDS011;16786;49.466;11.068;2024-03-22T13:35:33;10.73;;;9.50;;
29916;SDS011;16786;49.466;11.068;2024-03-22T13:37:59;11.25;;;9.25;;
29916;SDS011;16786;49.466;11.068;2024-03-22T13:40:26;10.32;;;9.25;;
29916;SDS011;16786;49.466;11.068;2024-03-22T13:42:52;10.13;;;9.13;;
29916;SDS011;16786;49.466;11.068;2024-03-22T13:45:19;11.77;;;9.30;;
29916;SDS011;16786;49.466;11.068;2024-03-22T13:47:46;11.40;;;9.10;;
29916;SDS011;16786;49.466;11.068;2024-03-22T13:50:12;9.73;;;8.73;;
29916;SDS011;16786;49.466;11.068;2024-03-22T13:52:37;11.68;;;8.07;;
29916;SDS011;16786;49.466;11.068;2024-03-22T13:55:04;8.80;;;8.00;;
29916;SDS011;16786;49.466;11.068;2024-03-22T13:57:30;8.70;;;7.68;;
29916;SDS011;16786;49.466;11.068;2024-03-22T13:59:57;9.35;;;8.45;;
29916;SDS011;16786;49.466;11.068;2024-03-22T14:02:24;9.60;;;8.70;;
29916;SDS011;16786;49.466;11.068;2024-03-22T14:04:50;10.35;;;8.10;;
29916;SDS011;16786;49.466;11.068;2024-03-22T14:07:16;9.52;;;8.63;;